createdAt,value
2023-02-21T00:00:51.005Z,47.10
2023-02-21T00:03:35.988Z,48.92
2023-02-21T00:06:21.189Z,52.92
2023-02-21T00:09:06.245Z,47.15
2023-02-21T00:11:51.326Z,48.88
2023-02-21T00:14:36.550Z,51.25
2023-02-21T00:17:21.653Z,49.15
2023-02-21T00:20:06.717Z,50.55
2023-02-21T00:22:52.104Z,50.55
2023-02-21T00:25:37.004Z,55.83
2023-02-21T00:28:22.286Z,52.08
2023-02-21T00:31:07.109Z,50.90
2023-02-21T00:33:55.188Z,52.40
2023-02-21T00:36:40.150Z,51.95
2023-02-21T00:39:25.349Z,49.40
2023-02-21T00:42:10.182Z,53.45
2023-02-21T00:44:55.436Z,52.67
2023-02-21T00:47:40.629Z,53.83
2023-02-21T00:50:26.263Z,54.33
2023-02-21T00:53:11.310Z,54.67
2023-02-21T00:55:56.460Z,50.60
2023-02-21T00:58:42.174Z,49.35
2023-02-21T01:01:27.357Z,49.70
2023-02-21T01:04:12.330Z,51.08
2023-02-21T01:06:57.651Z,53.38
2023-02-21T01:09:42.759Z,49.60
2023-02-21T01:12:31.481Z,51.22
2023-02-21T01:15:16.540Z,52.88
2023-02-21T01:18:01.743Z,53.00
2023-02-21T01:20:46.852Z,53.67
2023-02-21T01:23:32.154Z,53.10
2023-02-21T01:26:17.250Z,47.28
2023-02-21T01:29:02.340Z,52.85
2023-02-21T01:31:47.374Z,52.08
2023-02-21T01:34:33.661Z,52.45
2023-02-21T01:37:19.621Z,50.30
2023-02-21T01:40:04.348Z,48.10
2023-02-21T01:42:49.245Z,51.13
2023-02-21T01:45:40.340Z,53.40
2023-02-21T01:48:32.716Z,49.45
2023-02-21T01:51:19.162Z,48.83
2023-02-21T01:54:04.718Z,48.13
2023-02-21T01:56:50.809Z,50.58
2023-02-21T01:59:38.193Z,48.08
2023-02-21T02:02:29.425Z,52.85
2023-02-21T02:05:15.815Z,50.63
2023-02-21T02:08:01.285Z,57.55
2023-02-21T02:10:46.503Z,52.38
2023-02-21T02:13:28.666Z,52.60
2023-02-21T02:16:12.280Z,53.13
2023-02-21T02:18:45.882Z,48.28
2023-02-21T02:21:27.205Z,46.95
2023-02-21T02:24:28.472Z,47.72
2023-02-21T02:27:29.403Z,50.58
2023-02-21T02:30:28.883Z,52.67
2023-02-21T02:33:21.202Z,51.70
2023-02-21T02:35:50.642Z,49.00
2023-02-21T02:41:04.578Z,50.58
2023-02-21T02:43:34.911Z,54.03
2023-02-21T02:46:27.286Z,53.97
2023-02-21T02:49:00.030Z,52.63
2023-02-21T02:51:27.772Z,55.88
2023-02-21T02:53:54.681Z,55.22
2023-02-21T02:56:23.611Z,59.40
2023-02-21T02:59:02.740Z,53.58
2023-02-21T03:01:53.401Z,55.10
2023-02-21T03:04:28.476Z,55.33
2023-02-21T03:07:21.460Z,59.13
2023-02-21T03:10:02.875Z,59.40
2023-02-21T03:12:49.030Z,49.55
2023-02-21T03:15:27.257Z,57.60
2023-02-21T03:18:11.426Z,54.38
2023-02-21T03:20:39.722Z,52.83
2023-02-21T03:23:07.800Z,50.33
2023-02-21T03:25:36.727Z,50.88
2023-02-21T03:28:03.492Z,51.88
2023-02-21T03:30:30.319Z,50.78
2023-02-21T03:32:57.712Z,50.83
2023-02-21T03:35:29.828Z,51.55
2023-02-21T03:37:57.689Z,49.17
2023-02-21T03:40:28.695Z,51.35
2023-02-21T03:42:56.842Z,53.00
2023-02-21T03:45:23.754Z,49.60
2023-02-21T03:47:50.698Z,54.90
2023-02-21T03:50:17.833Z,53.33
2023-02-21T03:52:44.688Z,52.88
2023-02-21T03:55:11.157Z,50.63
2023-02-21T03:57:37.681Z,53.45
2023-02-21T04:00:04.897Z,54.75
2023-02-21T04:02:31.363Z,54.40
2023-02-21T04:04:57.865Z,52.67
2023-02-21T04:07:24.317Z,55.92
2023-02-21T04:09:50.725Z,52.30
2023-02-21T04:12:17.276Z,55.35
2023-02-21T04:14:43.868Z,50.67
2023-02-21T04:17:10.381Z,54.83
2023-02-21T04:19:36.889Z,47.95
2023-02-21T04:22:03.350Z,52.72
2023-02-21T04:24:29.895Z,49.28
2023-02-21T04:26:56.292Z,54.67
2023-02-21T04:29:22.777Z,55.38
2023-02-21T04:31:49.304Z,54.65
2023-02-21T04:34:15.935Z,50.72
2023-02-21T04:36:42.518Z,50.50
2023-02-21T04:39:09.477Z,50.47
2023-02-21T04:41:35.994Z,51.17
2023-02-21T04:44:02.488Z,47.25
2023-02-21T04:46:28.926Z,50.72
2023-02-21T04:48:55.390Z,52.03
2023-02-21T04:51:23.414Z,53.15
2023-02-21T04:53:50.631Z,53.03
2023-02-21T04:56:23.127Z,51.08
2023-02-21T04:58:50.056Z,47.65
2023-02-21T05:01:19.466Z,54.22
2023-02-21T05:06:23.237Z,53.45
2023-02-21T05:08:50.446Z,48.53
2023-02-21T05:11:18.563Z,51.00
2023-02-21T05:13:45.188Z,48.65
2023-02-21T05:16:11.974Z,54.33
2023-02-21T05:18:39.036Z,53.53
2023-02-21T05:21:08.684Z,56.15
2023-02-21T05:23:35.955Z,50.88
2023-02-21T05:26:13.671Z,54.67
2023-02-21T05:28:40.875Z,50.08
2023-02-21T05:31:08.263Z,58.05
2023-02-21T05:33:34.747Z,53.75
2023-02-21T05:36:01.246Z,49.17
2023-02-21T05:38:27.771Z,50.78
2023-02-21T05:40:54.471Z,51.15
2023-02-21T05:43:21.504Z,48.22
2023-02-21T05:45:48.385Z,53.88
2023-02-21T05:48:15.167Z,50.92
2023-02-21T05:50:41.631Z,50.28
2023-02-21T05:53:10.290Z,51.80
2023-02-21T05:55:37.311Z,53.75
2023-02-21T05:58:03.775Z,54.83
2023-02-21T06:00:31.258Z,48.33
2023-02-21T06:02:57.783Z,52.95
2023-02-21T06:05:24.793Z,54.95
2023-02-21T06:07:51.606Z,50.03
2023-02-21T06:10:18.718Z,49.33
2023-02-21T06:12:45.215Z,52.20
2023-02-21T06:15:13.037Z,51.70
2023-02-21T06:17:40.939Z,51.10
2023-02-21T06:20:12.659Z,56.22
2023-02-21T06:22:39.076Z,49.75
2023-02-21T06:25:05.960Z,52.45
2023-02-21T06:27:32.421Z,52.10
2023-02-21T06:29:58.862Z,61.53
2023-02-21T06:32:25.397Z,60.30
2023-02-21T06:34:51.882Z,60.65
2023-02-21T06:37:19.031Z,59.00
2023-02-21T06:39:45.981Z,64.20
2023-02-21T06:42:14.615Z,64.90
2023-02-21T06:44:47.426Z,63.65
2023-02-21T06:47:14.075Z,68.75
2023-02-21T06:49:40.602Z,65.13
2023-02-21T06:52:07.363Z,59.17
2023-02-21T06:54:34.271Z,55.38
2023-02-21T06:57:01.729Z,60.25
2023-02-21T06:59:31.344Z,54.40
2023-02-21T07:01:58.015Z,58.63
2023-02-21T07:04:25.604Z,59.03
2023-02-21T07:06:52.967Z,65.43
2023-02-21T07:09:19.479Z,55.55
2023-02-21T07:11:47.082Z,63.08
2023-02-21T07:14:14.277Z,58.28
2023-02-21T07:16:40.777Z,59.35
2023-02-21T07:19:07.198Z,58.92
2023-02-21T07:21:33.668Z,56.72
2023-02-21T07:24:00.142Z,58.58
2023-02-21T07:26:26.614Z,58.35
2023-02-21T07:28:53.069Z,61.63
2023-02-21T07:31:20.679Z,54.42
2023-02-21T07:33:47.415Z,61.05
2023-02-21T07:36:13.921Z,56.42
2023-02-21T07:38:40.490Z,60.00
2023-02-21T07:41:06.982Z,60.60
2023-02-21T07:43:33.500Z,59.80
2023-02-21T07:46:00.491Z,57.78
2023-02-21T07:48:27.109Z,58.42
2023-02-21T07:50:53.670Z,56.65
2023-02-21T07:53:20.573Z,60.95
2023-02-21T07:55:47.535Z,63.85
2023-02-21T07:58:14.140Z,64.72
2023-02-21T08:00:40.799Z,64.72
2023-02-21T08:03:07.535Z,60.88
2023-02-21T08:05:34.100Z,62.58
2023-02-21T08:08:00.737Z,61.05
2023-02-21T08:10:28.192Z,64.18
2023-02-21T08:12:55.054Z,63.15
2023-02-21T08:15:22.831Z,61.67
2023-02-21T08:17:49.968Z,61.85
2023-02-21T08:20:17.320Z,61.33
2023-02-21T08:22:43.847Z,64.15
2023-02-21T08:25:12.030Z,60.22
2023-02-21T08:27:40.758Z,60.53
2023-02-21T08:30:09.846Z,57.83
2023-02-21T08:32:36.758Z,57.83
2023-02-21T08:35:05.702Z,58.22
2023-02-21T08:37:36.342Z,57.17
2023-02-21T08:40:05.072Z,56.67
2023-02-21T08:42:31.640Z,56.47
2023-02-21T08:44:58.169Z,56.53
2023-02-21T08:47:24.751Z,54.60
2023-02-21T08:49:51.716Z,59.38
2023-02-21T08:52:21.156Z,58.67
2023-02-21T08:57:14.487Z,60.63
2023-02-21T08:59:42.809Z,55.60
2023-02-21T09:02:17.367Z,60.75
2023-02-21T09:04:45.253Z,57.03
2023-02-21T09:07:16.033Z,58.80
2023-02-21T09:09:42.624Z,63.03
2023-02-21T09:12:09.842Z,60.70
2023-02-21T09:14:37.570Z,59.10
2023-02-21T09:17:06.081Z,57.83
2023-02-21T09:19:33.263Z,54.93
2023-02-21T09:22:01.711Z,57.00
2023-02-21T09:24:28.362Z,58.77
2023-02-21T09:26:58.934Z,55.28
2023-02-21T09:29:31.703Z,57.85
2023-02-21T09:32:04.392Z,57.08
2023-02-21T09:34:31.154Z,63.92
2023-02-21T09:36:57.631Z,69.93
2023-02-21T09:39:24.457Z,59.20
2023-02-21T09:41:53.965Z,65.63
2023-02-21T09:46:56.983Z,64.75
2023-02-21T09:49:26.572Z,66.55
2023-02-21T09:51:54.489Z,73.45
2023-02-21T09:54:44.626Z,68.32
2023-02-21T09:57:15.968Z,67.60
2023-02-21T09:59:42.823Z,60.95
2023-02-21T10:02:16.170Z,65.05
2023-02-21T10:05:04.020Z,70.88
2023-02-21T10:07:55.262Z,77.72
2023-02-21T10:10:28.381Z,79.10
2023-02-21T10:13:17.286Z,80.70
2023-02-21T10:15:58.732Z,76.90
2023-02-21T10:18:49.651Z,75.57
2023-02-21T10:21:24.647Z,73.95
2023-02-21T10:23:54.509Z,75.78
2023-02-21T10:26:26.363Z,77.05
2023-02-21T10:28:55.076Z,78.22
2023-02-21T10:31:36.610Z,71.75
2023-02-21T10:34:07.466Z,73.90
2023-02-21T10:36:35.100Z,73.40
2023-02-21T10:39:16.722Z,75.82
2023-02-21T10:41:43.643Z,76.00
2023-02-21T10:44:25.477Z,67.30
2023-02-21T10:47:06.678Z,70.88
2023-02-21T10:49:45.411Z,72.13
2023-02-21T10:52:17.070Z,71.75
2023-02-21T10:55:02.226Z,71.82
2023-02-21T10:57:31.945Z,69.95
2023-02-21T10:59:58.806Z,58.42
2023-02-21T11:02:40.566Z,62.35
2023-02-21T11:05:15.516Z,69.25
2023-02-21T11:07:55.620Z,61.20
2023-02-21T11:10:44.663Z,63.95
2023-02-21T11:13:16.023Z,63.33
2023-02-21T11:15:44.154Z,66.72
2023-02-21T11:18:13.753Z,61.40
2023-02-21T11:20:40.668Z,66.70
2023-02-21T11:23:29.971Z,61.38
2023-02-21T11:26:05.044Z,59.80
2023-02-21T11:28:37.061Z,61.55
2023-02-21T11:31:08.910Z,57.75
2023-02-21T11:34:00.913Z,56.38
2023-02-21T11:36:42.713Z,58.65
2023-02-21T11:39:23.603Z,59.40
2023-02-21T11:41:53.406Z,60.80
2023-02-21T11:44:34.971Z,62.45
2023-02-21T11:47:39.564Z,69.30
2023-02-21T11:50:30.906Z,66.85
2023-02-21T11:53:18.706Z,73.68
2023-02-21T11:56:15.960Z,70.97
2023-02-21T11:59:05.680Z,68.50
2023-02-21T12:02:14.373Z,70.93
2023-02-21T12:04:43.696Z,74.50
2023-02-21T12:07:29.359Z,76.50
2023-02-21T12:10:07.708Z,72.63
2023-02-21T12:12:48.513Z,77.53
2023-02-21T12:15:37.062Z,78.60
2023-02-21T12:18:18.778Z,79.70
2023-02-21T12:21:03.989Z,75.13
2023-02-21T12:23:46.585Z,72.35
2023-02-21T12:26:28.471Z,74.00
2023-02-21T12:29:08.987Z,73.50
2023-02-21T12:31:41.639Z,74.80
2023-02-21T12:34:28.462Z,79.72
2023-02-21T12:37:09.072Z,77.68
2023-02-21T12:39:44.701Z,78.40
2023-02-21T12:42:36.954Z,77.70
2023-02-21T12:45:09.154Z,79.28
2023-02-21T12:47:52.895Z,78.28
2023-02-21T12:50:24.428Z,80.35
2023-02-21T12:53:12.307Z,79.80
2023-02-21T12:55:42.950Z,78.32
2023-02-21T12:58:28.167Z,81.10
2023-02-21T13:01:00.849Z,77.18
2023-02-21T13:03:45.629Z,73.95
2023-02-21T13:06:33.848Z,76.35
2023-02-21T13:09:06.981Z,83.18
2023-02-21T13:11:54.967Z,75.05
2023-02-21T13:14:27.193Z,78.18
2023-02-21T13:16:53.946Z,78.68
2023-02-21T13:19:22.312Z,75.10
2023-02-21T13:22:41.473Z,83.90
2023-02-21T13:28:05.649Z,76.35
2023-02-21T13:30:32.297Z,75.15
2023-02-21T13:33:00.774Z,77.18
2023-02-21T13:35:34.147Z,76.30
2023-02-21T13:38:01.816Z,76.78
2023-02-21T13:40:52.335Z,76.32
2023-02-21T13:43:29.261Z,75.65
2023-02-21T13:46:15.978Z,76.50
2023-02-21T13:48:42.594Z,76.15
2023-02-21T13:51:47.500Z,74.88
2023-02-21T13:54:22.958Z,70.82
2023-02-21T13:56:50.217Z,75.10
2023-02-21T13:59:33.479Z,70.50
2023-02-21T14:02:20.482Z,71.13
2023-02-21T14:04:53.218Z,65.50
2023-02-21T14:07:42.819Z,67.97
2023-02-21T14:10:23.910Z,70.38
2023-02-21T14:13:04.507Z,65.82
2023-02-21T14:15:44.013Z,66.95
2023-02-21T14:20:55.752Z,64.18
2023-02-21T14:23:31.330Z,71.65
2023-02-21T14:26:01.100Z,70.88
2023-02-21T14:28:58.774Z,68.82
2023-02-21T14:31:48.200Z,68.53
2023-02-21T14:36:44.926Z,69.55
2023-02-21T14:39:11.549Z,73.85
2023-02-21T14:41:57.336Z,72.25
2023-02-21T14:44:35.603Z,73.60
2023-02-21T14:47:25.494Z,75.15
2023-02-21T14:50:05.119Z,83.38
2023-02-21T14:53:11.461Z,73.68
2023-02-21T14:55:56.613Z,73.35
2023-02-21T14:58:47.692Z,73.78
2023-02-21T15:01:33.149Z,76.40
2023-02-21T15:04:17.419Z,80.65
2023-02-21T15:06:53.241Z,76.55
2023-02-21T15:09:21.119Z,84.88
2023-02-21T15:11:51.273Z,80.60
2023-02-21T15:14:24.786Z,86.00
2023-02-21T15:16:58.801Z,91.30
2023-02-21T15:19:34.216Z,90.50
2023-02-21T15:22:26.916Z,85.85
2023-02-21T15:25:08.685Z,89.00
2023-02-21T15:27:51.015Z,90.68
2023-02-21T15:30:25.501Z,91.13
2023-02-21T15:33:19.126Z,84.90
2023-02-21T15:35:54.034Z,90.80
2023-02-21T15:38:44.031Z,91.88
2023-02-21T15:41:33.399Z,90.07
2023-02-21T15:44:06.602Z,91.18
2023-02-21T15:46:50.185Z,88.30
2023-02-21T15:49:39.672Z,92.72
2023-02-21T15:54:38.203Z,89.38
2023-02-21T15:57:04.836Z,95.68
2023-02-21T15:59:32.221Z,91.10
2023-02-21T16:02:22.480Z,89.95
2023-02-21T16:04:51.187Z,97.15
2023-02-21T16:07:34.975Z,95.63
2023-02-21T16:10:05.352Z,103.28
2023-02-21T16:12:38.882Z,91.82
2023-02-21T16:15:08.250Z,89.65
2023-02-21T16:17:38.618Z,91.22
2023-02-21T16:20:19.515Z,91.05
2023-02-21T16:23:07.209Z,84.28
2023-02-21T16:25:34.902Z,82.35
2023-02-21T16:28:02.089Z,86.57
2023-02-21T16:30:31.981Z,75.45
2023-02-21T16:33:04.369Z,83.25
2023-02-21T16:35:32.356Z,84.10
2023-02-21T16:38:00.072Z,73.43
2023-02-21T16:40:33.432Z,77.00
2023-02-21T16:43:01.904Z,74.43
2023-02-21T16:45:29.938Z,71.50
2023-02-21T16:47:59.055Z,74.30
2023-02-21T16:50:35.566Z,64.78
2023-02-21T16:53:03.066Z,74.38
2023-02-21T16:55:29.934Z,68.97
2023-02-21T16:58:02.360Z,68.43
2023-02-21T17:00:30.752Z,76.55
2023-02-21T17:02:57.572Z,74.13
2023-02-21T17:05:24.980Z,73.13
2023-02-21T17:07:53.525Z,75.88
2023-02-21T17:10:21.530Z,77.33
2023-02-21T17:12:48.029Z,81.30
2023-02-21T17:15:14.582Z,80.80
2023-02-21T17:17:42.921Z,80.63
2023-02-21T17:20:16.781Z,85.18
2023-02-21T17:22:43.290Z,83.10
2023-02-21T17:25:09.950Z,91.05
2023-02-21T17:27:36.935Z,87.60
2023-02-21T17:30:06.403Z,92.25
2023-02-21T17:34:59.989Z,90.90
2023-02-21T17:37:26.573Z,97.43
2023-02-21T17:39:56.773Z,95.93
2023-02-21T17:42:24.363Z,94.07
2023-02-21T17:44:52.006Z,95.22
2023-02-21T17:47:23.186Z,102.43
2023-02-21T17:49:50.444Z,104.38
2023-02-21T17:52:17.518Z,102.88
2023-02-21T17:54:44.065Z,94.80
2023-02-21T17:57:11.173Z,103.10
2023-02-21T17:59:38.365Z,98.03
2023-02-21T18:02:06.323Z,101.78
2023-02-21T18:04:33.131Z,101.03
2023-02-21T18:06:59.903Z,101.35
2023-02-21T18:09:26.452Z,99.88
2023-02-21T18:11:55.691Z,104.63
2023-02-21T18:14:25.492Z,99.70
2023-02-21T18:16:52.856Z,99.35
2023-02-21T18:19:19.404Z,102.75
2023-02-21T18:21:46.105Z,90.97
2023-02-21T18:24:13.952Z,101.70
2023-02-21T18:26:41.522Z,93.95
2023-02-21T18:29:08.481Z,96.38
2023-02-21T18:31:35.444Z,93.45
2023-02-21T18:34:03.116Z,98.25
2023-02-21T18:36:29.761Z,92.97
2023-02-21T18:38:56.638Z,90.72
2023-02-21T18:41:25.170Z,99.38
2023-02-21T18:43:51.682Z,97.25
2023-02-21T18:46:20.544Z,98.85
2023-02-21T18:48:49.669Z,93.38
2023-02-21T18:51:19.466Z,95.13
2023-02-21T18:53:48.412Z,97.70
2023-02-21T18:56:18.792Z,95.70
2023-02-21T18:58:46.172Z,94.40
2023-02-21T19:01:15.425Z,83.40
2023-02-21T19:06:12.306Z,95.50
2023-02-21T19:08:38.840Z,91.40
2023-02-21T19:11:05.396Z,96.95
2023-02-21T19:13:31.938Z,84.93
2023-02-21T19:15:59.805Z,87.55
2023-02-21T19:18:28.109Z,97.15
2023-02-21T19:20:54.900Z,97.23
2023-02-21T19:23:21.425Z,90.05
2023-02-21T19:25:48.244Z,93.50
2023-02-21T19:28:14.788Z,90.20
2023-02-21T19:30:41.746Z,88.63
2023-02-21T19:33:08.966Z,95.35
2023-02-21T19:35:36.155Z,93.25
2023-02-21T19:38:05.759Z,95.75
2023-02-21T19:40:33.950Z,93.35
2023-02-21T19:43:00.624Z,92.18
2023-02-21T19:45:27.459Z,89.90
2023-02-21T19:47:54.025Z,92.65
2023-02-21T19:50:21.549Z,97.03
2023-02-21T19:52:52.884Z,85.30
2023-02-21T19:55:19.479Z,100.10
2023-02-21T19:57:46.084Z,96.47
2023-02-21T20:00:13.035Z,103.72
2023-02-21T20:02:39.725Z,91.28
2023-02-21T20:05:06.773Z,91.85
2023-02-21T20:07:33.284Z,88.32
2023-02-21T20:09:59.815Z,94.13
2023-02-21T20:12:26.422Z,104.60
2023-02-21T20:14:55.930Z,95.30
2023-02-21T20:17:22.398Z,102.63
2023-02-21T20:19:48.924Z,97.40
2023-02-21T20:22:15.502Z,102.00
2023-02-21T20:24:45.827Z,99.47
2023-02-21T20:27:14.546Z,95.07
2023-02-21T20:29:41.326Z,108.15
2023-02-21T20:32:08.054Z,93.05
2023-02-21T20:34:34.795Z,95.60
2023-02-21T20:37:01.301Z,98.55
2023-02-21T20:39:31.604Z,97.35
2023-02-21T20:42:00.670Z,105.22
2023-02-21T20:44:28.110Z,96.40
2023-02-21T20:46:56.674Z,100.03
2023-02-21T20:49:23.065Z,105.13
2023-02-21T20:51:49.582Z,109.80
2023-02-21T20:54:21.932Z,110.75
2023-02-21T20:56:56.553Z,111.65
2023-02-21T20:59:29.423Z,113.13
2023-02-21T21:01:57.840Z,114.65
2023-02-21T21:04:32.822Z,117.47
2023-02-21T21:07:03.723Z,127.10
2023-02-21T21:09:34.066Z,122.03
2023-02-21T21:12:02.568Z,126.78
2023-02-21T21:14:35.400Z,130.38
2023-02-21T21:17:02.554Z,126.05
2023-02-21T21:19:33.851Z,165.95
2023-02-21T21:22:02.383Z,111.65
2023-02-21T21:24:29.299Z,142.03
2023-02-21T21:26:58.569Z,180.65
2023-02-21T21:29:25.866Z,139.77
2023-02-21T21:31:54.481Z,143.95
2023-02-21T21:34:23.428Z,119.05
2023-02-21T21:36:58.363Z,127.45
2023-02-21T21:39:25.692Z,117.00
2023-02-21T21:41:54.281Z,112.90
2023-02-21T21:44:23.120Z,141.15
2023-02-21T21:46:50.863Z,119.68
2023-02-21T21:49:24.478Z,120.93
2023-02-21T21:51:51.108Z,123.88
2023-02-21T21:54:20.578Z,134.30
2023-02-21T21:56:48.589Z,148.23
2023-02-21T21:59:23.786Z,135.98
2023-02-21T22:01:51.109Z,147.32
2023-02-21T22:04:19.024Z,128.00
2023-02-21T22:06:46.704Z,132.50
2023-02-21T22:09:17.564Z,126.90
2023-02-21T22:11:46.544Z,126.85
2023-02-21T22:14:14.264Z,120.97
2023-02-21T22:16:43.214Z,108.82
2023-02-21T22:19:10.586Z,95.65
2023-02-21T22:21:37.854Z,121.95
2023-02-21T22:24:04.817Z,98.72
2023-02-21T22:26:31.816Z,106.88
2023-02-21T22:28:59.161Z,95.00
2023-02-21T22:31:27.036Z,90.72
2023-02-21T22:33:59.139Z,91.63
2023-02-21T22:36:26.286Z,111.38
2023-02-21T22:38:54.833Z,90.65
2023-02-21T22:41:31.590Z,96.17
2023-02-21T22:43:58.415Z,91.65
2023-02-21T22:46:27.610Z,103.10
2023-02-21T22:48:55.647Z,96.95
2023-02-21T22:51:27.361Z,80.13
2023-02-21T22:53:54.473Z,86.32
2023-02-21T22:56:24.997Z,80.75
2023-02-21T22:58:54.899Z,99.95
2023-02-21T23:01:29.190Z,87.63
2023-02-21T23:04:10.560Z,87.30
2023-02-21T23:06:40.251Z,90.63
2023-02-21T23:09:13.251Z,93.95
2023-02-21T23:11:47.876Z,91.55
2023-02-21T23:14:15.131Z,79.57
2023-02-21T23:16:43.108Z,83.47
2023-02-21T23:19:10.466Z,91.38
2023-02-21T23:21:44.732Z,88.47
2023-02-21T23:24:12.539Z,79.00
2023-02-21T23:26:46.862Z,79.82
2023-02-21T23:29:15.009Z,77.55
2023-02-21T23:31:41.577Z,82.28
2023-02-21T23:34:09.987Z,81.25
2023-02-21T23:36:39.204Z,74.90
2023-02-21T23:39:08.959Z,75.28
2023-02-21T23:41:41.060Z,90.40
2023-02-21T23:44:13.318Z,93.10
2023-02-21T23:46:42.405Z,117.57
2023-02-21T23:49:15.258Z,107.35
2023-02-21T23:51:46.635Z,98.97
2023-02-21T23:54:17.985Z,90.22
2023-02-21T23:56:47.139Z,117.38
2023-02-21T23:59:15.387Z,105.82
